createdAt,value
2018-06-25T00:00:58.621Z,94.20
2018-06-25T00:03:26.488Z,94.40
2018-06-25T00:05:54.137Z,94.70
2018-06-25T00:08:21.770Z,95.00
2018-06-25T00:10:49.446Z,95.20
2018-06-25T00:13:17.064Z,95.50
2018-06-25T00:15:44.621Z,95.80
2018-06-25T00:18:12.212Z,96.10
2018-06-25T00:20:39.810Z,96.40
2018-06-25T00:23:07.773Z,96.70
2018-06-25T00:25:35.400Z,97.10
2018-06-25T00:28:03.088Z,97.30
2018-06-25T00:30:30.669Z,97.70
2018-06-25T00:32:58.290Z,97.90
2018-06-25T00:35:25.898Z,98.20
2018-06-25T00:37:53.595Z,98.50
2018-06-25T00:40:21.267Z,98.80
2018-06-25T00:45:16.739Z,99.70
2018-06-25T00:47:44.578Z,99.60
2018-06-25T00:50:12.189Z,99.90
2018-06-25T00:52:39.889Z,99.90
2018-06-25T00:55:07.573Z,99.90
2018-06-25T00:57:35.169Z,99.90
2018-06-25T01:00:02.919Z,99.90
2018-06-25T01:02:30.531Z,99.90
2018-06-25T01:04:58.205Z,99.90
2018-06-25T01:07:25.777Z,99.90
2018-06-25T01:09:53.414Z,99.90
2018-06-25T01:12:21.072Z,99.90
2018-06-25T01:14:48.666Z,99.90
2018-06-25T01:17:17.265Z,99.90
2018-06-25T01:19:44.941Z,99.90
2018-06-25T01:22:12.577Z,99.90
2018-06-25T01:24:40.227Z,99.90
2018-06-25T01:27:09.045Z,99.90
2018-06-25T01:29:37.952Z,99.90
2018-06-25T01:32:05.642Z,99.90
2018-06-25T01:34:33.327Z,99.90
2018-06-25T01:37:01.295Z,99.90
2018-06-25T01:39:28.885Z,99.90
2018-06-25T01:41:56.514Z,99.90
2018-06-25T01:44:24.172Z,99.90
2018-06-25T01:46:51.855Z,99.90
2018-06-25T01:49:19.444Z,99.90
2018-06-25T01:51:47.044Z,99.90
2018-06-25T01:54:14.614Z,99.90
2018-06-25T01:56:42.438Z,99.90
2018-06-25T01:59:10.048Z,99.90
2018-06-25T02:01:37.648Z,99.90
2018-06-25T02:04:05.283Z,99.90
2018-06-25T02:06:32.942Z,99.90
2018-06-25T02:09:00.508Z,99.90
2018-06-25T02:11:28.332Z,99.90
2018-06-25T02:13:56.113Z,99.90
2018-06-25T02:16:23.667Z,99.90
2018-06-25T02:18:51.274Z,99.90
2018-06-25T02:21:18.870Z,99.90
2018-06-25T02:23:46.430Z,99.90
2018-06-25T02:26:14.008Z,99.90
2018-06-25T02:28:41.626Z,99.90
2018-06-25T02:31:09.234Z,99.90
2018-06-25T02:33:37.182Z,99.90
2018-06-25T02:36:05.555Z,99.90
2018-06-25T02:41:00.635Z,99.90
2018-06-25T02:43:28.250Z,99.90
2018-06-25T02:45:55.803Z,99.90
2018-06-25T02:48:23.699Z,99.90
2018-06-25T02:50:51.480Z,99.90
2018-06-25T02:53:19.033Z,99.90
2018-06-25T02:55:46.888Z,99.90
2018-06-25T02:58:14.480Z,99.90
2018-06-25T03:00:42.081Z,99.90
2018-06-25T03:03:09.812Z,99.90
2018-06-25T03:05:37.513Z,99.90
2018-06-25T03:08:05.393Z,99.90
2018-06-25T03:10:33.120Z,99.90
2018-06-25T03:13:00.694Z,99.90
2018-06-25T03:15:28.287Z,99.90
2018-06-25T03:17:55.932Z,99.90
2018-06-25T03:20:23.469Z,99.90
2018-06-25T03:22:50.992Z,99.90
2018-06-25T03:25:18.606Z,99.90
2018-06-25T03:27:46.204Z,99.90
2018-06-25T03:30:13.921Z,99.90
2018-06-25T03:32:41.752Z,99.90
2018-06-25T03:35:09.301Z,99.90
2018-06-25T03:37:36.926Z,99.90
2018-06-25T03:40:04.573Z,99.90
2018-06-25T03:42:32.170Z,99.90
2018-06-25T03:44:59.816Z,99.90
2018-06-25T03:47:27.492Z,99.90
2018-06-25T03:49:55.069Z,99.90
2018-06-25T03:52:22.613Z,99.90
2018-06-25T03:54:50.228Z,99.90
2018-06-25T03:57:17.773Z,99.90
2018-06-25T03:59:45.325Z,99.90
2018-06-25T04:02:13.061Z,99.90
2018-06-25T04:04:40.629Z,99.90
2018-06-25T04:07:08.251Z,99.90
2018-06-25T04:09:35.849Z,99.90
2018-06-25T04:12:03.475Z,99.90
2018-06-25T04:14:31.065Z,99.90
2018-06-25T04:16:58.771Z,99.90
2018-06-25T04:19:26.376Z,99.90
2018-06-25T04:21:53.935Z,99.90
2018-06-25T04:24:21.611Z,99.90
2018-06-25T04:26:49.129Z,99.90
2018-06-25T04:29:16.708Z,99.90
2018-06-25T04:31:44.324Z,99.90
2018-06-25T04:34:12.091Z,99.90
2018-06-25T04:36:39.673Z,99.90
2018-06-25T04:39:08.615Z,99.90
2018-06-25T04:41:36.173Z,99.90
2018-06-25T04:44:03.757Z,99.90
2018-06-25T04:46:31.517Z,99.90
2018-06-25T04:48:59.103Z,99.90
2018-06-25T04:51:26.765Z,99.90
2018-06-25T04:53:54.405Z,99.90
2018-06-25T04:56:22.011Z,99.90
2018-06-25T04:58:49.592Z,99.90
2018-06-25T05:01:17.308Z,99.90
2018-06-25T05:03:44.871Z,99.90
2018-06-25T05:06:12.585Z,99.90
2018-06-25T05:11:07.763Z,99.90
2018-06-25T05:13:35.357Z,99.90
2018-06-25T05:16:03.055Z,99.90
2018-06-25T05:18:30.672Z,99.90
2018-06-25T05:20:58.268Z,99.90
2018-06-25T05:23:26.135Z,99.90
2018-06-25T05:25:54.034Z,99.90
2018-06-25T05:28:21.719Z,99.90
2018-06-25T05:30:49.327Z,99.90
2018-06-25T05:33:16.889Z,99.90
2018-06-25T05:35:44.543Z,99.90
2018-06-25T05:38:12.145Z,99.90
2018-06-25T05:40:39.809Z,99.90
2018-06-25T05:43:07.469Z,99.90
2018-06-25T05:45:35.085Z,99.90
2018-06-25T05:48:02.717Z,99.90
2018-06-25T05:50:30.609Z,99.90
2018-06-25T05:52:58.189Z,99.90
2018-06-25T05:55:25.855Z,99.90
2018-06-25T05:57:53.456Z,99.90
2018-06-25T06:00:21.080Z,99.90
2018-06-25T06:02:49.265Z,99.90
2018-06-25T06:05:16.881Z,99.90
2018-06-25T06:07:44.505Z,99.90
2018-06-25T06:10:12.137Z,99.90
2018-06-25T06:12:39.998Z,99.90
2018-06-25T06:15:07.613Z,99.90
2018-06-25T06:17:35.201Z,99.90
2018-06-25T06:20:02.894Z,99.90
2018-06-25T06:22:30.494Z,99.90
2018-06-25T06:24:58.111Z,99.90
2018-06-25T06:27:25.737Z,99.90
2018-06-25T06:29:53.514Z,99.90
2018-06-25T06:32:21.172Z,99.90
2018-06-25T06:34:48.778Z,99.90
2018-06-25T06:37:16.373Z,99.90
2018-06-25T06:39:43.990Z,99.90
2018-06-25T06:42:11.593Z,99.90
2018-06-25T06:44:39.282Z,99.90
2018-06-25T06:47:06.860Z,99.90
2018-06-25T06:49:34.436Z,99.90
2018-06-25T06:52:02.006Z,99.90
2018-06-25T06:54:29.647Z,99.90
2018-06-25T06:56:57.286Z,99.90
2018-06-25T06:59:24.946Z,99.90
2018-06-25T07:01:53.017Z,99.90
2018-06-25T07:04:20.602Z,99.90
2018-06-25T07:06:48.258Z,99.90
2018-06-25T07:09:15.830Z,99.90
2018-06-25T07:11:43.396Z,99.90
2018-06-25T07:14:11.132Z,99.90
2018-06-25T07:16:39.922Z,99.90
2018-06-25T07:19:07.893Z,99.90
2018-06-25T07:21:35.848Z,99.90
2018-06-25T07:24:03.753Z,99.90
2018-06-25T07:26:31.333Z,99.90
2018-06-25T07:28:58.976Z,99.90
2018-06-25T07:31:27.894Z,99.90
2018-06-25T07:33:55.562Z,99.90
2018-06-25T07:36:23.247Z,99.90
2018-06-25T07:38:50.964Z,99.90
2018-06-25T07:41:18.555Z,99.90
2018-06-25T07:43:46.589Z,99.90
2018-06-25T07:46:14.527Z,99.90
2018-06-25T07:48:43.280Z,99.90
2018-06-25T07:51:11.113Z,99.00
2018-06-25T07:53:38.796Z,98.90
2018-06-25T07:56:06.399Z,98.20
2018-06-25T07:58:34.061Z,97.40
2018-06-25T08:01:01.646Z,97.20
2018-06-25T08:03:29.229Z,96.40
2018-06-25T08:05:56.922Z,96.10
2018-06-25T08:08:24.919Z,94.70
2018-06-25T08:10:52.609Z,93.60
2018-06-25T08:13:20.241Z,93.30
2018-06-25T08:15:47.869Z,91.50
2018-06-25T08:18:15.670Z,90.80
2018-06-25T08:20:43.274Z,89.10
2018-06-25T08:23:10.878Z,88.80
2018-06-25T08:25:38.627Z,87.50
2018-06-25T08:28:06.197Z,86.20
2018-06-25T08:30:34.073Z,86.40
2018-06-25T08:33:01.728Z,85.50
2018-06-25T08:35:29.368Z,85.90
2018-06-25T08:37:57.023Z,85.00
2018-06-25T08:42:59.018Z,86.70
2018-06-25T08:45:26.584Z,86.40
2018-06-25T08:47:54.338Z,86.40
2018-06-25T08:50:21.997Z,85.80
2018-06-25T08:52:49.550Z,84.90
2018-06-25T08:55:17.197Z,82.30
2018-06-25T08:57:44.771Z,80.50
2018-06-25T09:00:12.374Z,79.20
2018-06-25T09:02:39.918Z,77.80
2018-06-25T09:05:07.628Z,77.70
2018-06-25T09:07:35.147Z,77.50
2018-06-25T09:10:02.756Z,77.60
2018-06-25T09:12:30.388Z,76.60
2018-06-25T09:14:58.014Z,75.90
2018-06-25T09:17:25.747Z,74.60
2018-06-25T09:19:53.346Z,74.20
2018-06-25T09:22:20.955Z,73.70
2018-06-25T09:24:48.614Z,72.50
2018-06-25T09:27:16.214Z,72.00
2018-06-25T09:29:43.780Z,72.20
2018-06-25T09:32:11.317Z,71.90
2018-06-25T09:34:44.705Z,70.70
2018-06-25T09:37:12.298Z,71.20
2018-06-25T09:39:39.914Z,70.60
2018-06-25T09:42:07.850Z,69.80
2018-06-25T09:44:35.751Z,66.80
2018-06-25T09:47:03.429Z,65.50
2018-06-25T09:49:32.099Z,65.30
2018-06-25T09:52:04.330Z,65.00
2018-06-25T09:54:32.221Z,64.20
2018-06-25T09:56:59.925Z,63.00
2018-06-25T09:59:27.784Z,63.80
2018-06-25T10:01:55.467Z,64.00
2018-06-25T10:04:23.147Z,63.70
2018-06-25T10:06:50.822Z,63.00
2018-06-25T10:09:18.471Z,62.90
2018-06-25T10:11:46.127Z,62.10
2018-06-25T10:14:13.725Z,62.00
2018-06-25T10:16:41.321Z,60.50
2018-06-25T10:19:09.087Z,59.50
2018-06-25T10:21:36.727Z,59.70
2018-06-25T10:24:04.535Z,59.10
2018-06-25T10:26:32.127Z,57.30
2018-06-25T10:28:59.697Z,57.30
2018-06-25T10:31:27.413Z,56.90
2018-06-25T10:33:54.985Z,58.10
2018-06-25T10:36:22.779Z,58.60
2018-06-25T10:38:50.421Z,58.40
2018-06-25T10:41:18.137Z,57.90
2018-06-25T10:43:45.749Z,57.50
2018-06-25T10:46:13.373Z,57.90
2018-06-25T10:48:40.939Z,58.10
2018-06-25T10:51:08.653Z,57.90
2018-06-25T10:53:36.253Z,58.40
2018-06-25T10:56:04.023Z,58.00
2018-06-25T10:58:31.663Z,58.20
2018-06-25T11:00:59.318Z,58.30
2018-06-25T11:03:26.917Z,58.00
2018-06-25T11:05:54.548Z,57.70
2018-06-25T11:08:22.371Z,57.50
2018-06-25T11:10:50.001Z,56.80
2018-06-25T11:13:17.680Z,57.30
2018-06-25T11:15:45.297Z,57.70
2018-06-25T11:18:12.937Z,58.50
2018-06-25T11:20:40.502Z,58.50
2018-06-25T11:23:08.125Z,57.80
2018-06-25T11:25:35.801Z,58.80
2018-06-25T11:28:03.379Z,58.50
2018-06-25T11:30:31.015Z,58.40
2018-06-25T11:32:58.561Z,58.60
2018-06-25T11:35:26.193Z,58.90
2018-06-25T11:37:53.849Z,59.30
2018-06-25T11:40:21.491Z,59.10
2018-06-25T11:42:49.085Z,59.10
2018-06-25T11:45:16.781Z,58.70
2018-06-25T11:47:44.429Z,59.10
2018-06-25T11:50:12.095Z,59.60
2018-06-25T11:52:39.713Z,59.40
2018-06-25T11:55:07.337Z,59.30
2018-06-25T11:57:35.233Z,59.20
2018-06-25T12:00:03.888Z,59.70
2018-06-25T12:02:31.467Z,58.50
2018-06-25T12:04:58.973Z,59.20
2018-06-25T12:07:26.613Z,59.20
2018-06-25T12:09:54.308Z,58.60
2018-06-25T12:12:21.936Z,59.50
2018-06-25T12:14:49.475Z,60.00
2018-06-25T12:17:17.197Z,59.90
2018-06-25T12:19:44.810Z,60.00
2018-06-25T12:22:12.480Z,60.00
2018-06-25T12:24:40.045Z,60.40
2018-06-25T12:27:07.645Z,59.90
2018-06-25T12:29:35.297Z,59.10
2018-06-25T12:32:02.933Z,59.80
2018-06-25T12:34:30.479Z,58.90
2018-06-25T12:36:58.101Z,57.60
2018-06-25T12:39:25.772Z,57.60
2018-06-25T12:41:53.311Z,57.30
2018-06-25T12:44:20.893Z,57.10
2018-06-25T12:46:48.641Z,56.90
2018-06-25T12:49:16.246Z,57.40
2018-06-25T12:51:43.844Z,57.50
2018-06-25T12:54:11.491Z,57.70
2018-06-25T12:56:39.237Z,57.80
2018-06-25T12:59:06.845Z,58.20
2018-06-25T13:01:34.512Z,57.80
2018-06-25T13:04:02.081Z,58.10
2018-06-25T13:06:29.715Z,58.30
2018-06-25T13:08:57.289Z,56.80
2018-06-25T13:11:24.915Z,57.70
2018-06-25T13:13:52.558Z,56.70
2018-06-25T13:16:20.191Z,57.40
2018-06-25T13:18:47.789Z,57.10
2018-06-25T13:21:15.485Z,57.60
2018-06-25T13:23:43.007Z,57.30
2018-06-25T13:26:10.637Z,57.80
2018-06-25T13:28:38.463Z,57.80
2018-06-25T13:31:06.234Z,57.70
2018-06-25T13:33:33.863Z,58.20
2018-06-25T13:36:01.434Z,58.10
2018-06-25T13:38:29.061Z,58.40
2018-06-25T13:40:56.634Z,58.90
2018-06-25T13:43:24.227Z,59.30
2018-06-25T13:45:51.848Z,59.30
2018-06-25T13:48:19.439Z,59.50
2018-06-25T13:50:47.071Z,59.10
2018-06-25T13:53:14.669Z,58.90
2018-06-25T13:55:42.243Z,58.70
2018-06-25T13:58:09.947Z,58.80
2018-06-25T14:00:37.602Z,57.00
2018-06-25T14:03:05.253Z,56.80
2018-06-25T14:05:32.871Z,57.00
2018-06-25T14:08:00.449Z,57.90
2018-06-25T14:12:55.603Z,57.20
2018-06-25T14:15:23.274Z,57.00
2018-06-25T14:17:50.893Z,57.00
2018-06-25T14:20:18.630Z,56.30
2018-06-25T14:22:46.330Z,56.80
2018-06-25T14:25:13.997Z,57.30
2018-06-25T14:28:51.065Z,57.00
2018-06-25T14:31:21.718Z,57.70
2018-06-25T14:33:55.293Z,56.90
2018-06-25T14:36:22.917Z,56.70
2018-06-25T14:38:50.702Z,57.10
2018-06-25T14:41:18.377Z,57.40
2018-06-25T14:43:45.944Z,57.00
2018-06-25T14:48:41.286Z,56.30
2018-06-25T14:51:08.967Z,56.20
2018-06-25T14:53:36.594Z,55.90
2018-06-25T14:56:05.180Z,55.90
2018-06-25T14:58:32.826Z,55.80
2018-06-25T15:01:00.461Z,55.50
2018-06-25T15:03:28.062Z,55.80
2018-06-25T15:05:55.621Z,56.00
2018-06-25T15:08:23.169Z,56.10
2018-06-25T15:10:50.811Z,56.10
2018-06-25T15:13:18.597Z,56.30
2018-06-25T15:15:46.224Z,56.30
2018-06-25T15:18:14.024Z,56.50
2018-06-25T15:20:41.641Z,56.70
2018-06-25T15:23:09.232Z,56.40
2018-06-25T15:25:36.914Z,56.40
2018-06-25T15:28:04.561Z,57.20
2018-06-25T15:30:32.177Z,57.20
2018-06-25T15:32:59.775Z,56.70
2018-06-25T15:35:27.405Z,56.60
2018-06-25T15:37:55.275Z,57.10
2018-06-25T15:40:23.239Z,57.30
2018-06-25T15:42:51.084Z,57.30
2018-06-25T15:45:18.999Z,57.80
2018-06-25T15:47:46.707Z,57.90
2018-06-25T15:50:14.425Z,57.80
2018-06-25T15:52:42.006Z,57.60
2018-06-25T15:55:09.610Z,58.60
2018-06-25T15:57:37.218Z,58.50
2018-06-25T16:00:05.203Z,58.20
2018-06-25T16:02:33.002Z,58.20
2018-06-25T16:05:00.599Z,58.30
2018-06-25T16:07:28.242Z,58.80
2018-06-25T16:09:56.330Z,58.90
2018-06-25T16:12:25.194Z,58.60
2018-06-25T16:14:52.778Z,58.60
2018-06-25T16:17:20.366Z,59.10
2018-06-25T16:19:48.042Z,58.60
2018-06-25T16:22:15.680Z,58.70
2018-06-25T16:24:43.306Z,58.90
2018-06-25T16:27:10.858Z,58.90
2018-06-25T16:29:38.768Z,58.80
2018-06-25T16:32:06.773Z,58.90
2018-06-25T16:34:34.661Z,59.00
2018-06-25T16:37:02.333Z,59.20
2018-06-25T16:39:30.237Z,59.40
2018-06-25T16:41:57.963Z,59.80
2018-06-25T16:44:25.575Z,60.30
2018-06-25T16:46:53.223Z,60.30
2018-06-25T16:49:20.797Z,60.40
2018-06-25T16:51:48.370Z,60.80
2018-06-25T16:54:16.632Z,61.00
2018-06-25T16:56:44.275Z,60.80
2018-06-25T16:59:11.901Z,61.00
2018-06-25T17:01:39.498Z,61.50
2018-06-25T17:04:07.224Z,61.80
2018-06-25T17:06:34.869Z,61.60
2018-06-25T17:09:02.587Z,61.70
2018-06-25T17:11:32.641Z,61.80
2018-06-25T17:14:00.519Z,61.80
2018-06-25T17:16:28.145Z,62.50
2018-06-25T17:18:55.983Z,63.60
2018-06-25T17:21:23.623Z,64.00
2018-06-25T17:23:51.259Z,64.40
2018-06-25T17:26:19.099Z,64.50
2018-06-25T17:28:46.791Z,64.50
2018-06-25T17:31:14.609Z,64.50
2018-06-25T17:33:42.293Z,64.40
2018-06-25T17:36:09.881Z,64.60
2018-06-25T17:38:37.524Z,64.60
2018-06-25T17:41:05.269Z,64.80
2018-06-25T17:43:32.864Z,65.00
2018-06-25T17:46:00.589Z,65.20
2018-06-25T17:48:28.204Z,65.70
2018-06-25T17:50:55.812Z,65.90
2018-06-25T17:53:23.411Z,66.30
2018-06-25T17:55:51.093Z,66.90
2018-06-25T17:58:18.737Z,67.80
2018-06-25T18:00:46.341Z,68.00
2018-06-25T18:03:13.947Z,68.50
2018-06-25T18:05:41.514Z,68.40
2018-06-25T18:08:09.231Z,68.50
2018-06-25T18:10:36.959Z,68.60
2018-06-25T18:13:04.693Z,69.00
2018-06-25T18:15:32.300Z,69.20
2018-06-25T18:17:59.927Z,69.10
2018-06-25T18:20:27.581Z,69.80
2018-06-25T18:22:55.195Z,69.00
2018-06-25T18:25:22.741Z,69.40
2018-06-25T18:27:50.313Z,69.60
2018-06-25T18:30:17.973Z,69.70
2018-06-25T18:32:45.569Z,70.00
2018-06-25T18:35:13.247Z,70.40
2018-06-25T18:37:40.893Z,70.40
2018-06-25T18:40:08.515Z,70.20
2018-06-25T18:42:36.202Z,70.60
2018-06-25T18:45:04.115Z,70.70
2018-06-25T18:47:38.586Z,70.80
2018-06-25T18:50:06.230Z,70.90
2018-06-25T18:52:33.954Z,71.00
2018-06-25T18:55:01.545Z,70.60
2018-06-25T18:57:29.195Z,70.60
2018-06-25T18:59:56.980Z,70.90
2018-06-25T19:02:24.608Z,71.20
2018-06-25T19:04:52.278Z,71.70
2018-06-25T19:07:19.934Z,72.00
2018-06-25T19:09:47.562Z,72.20
2018-06-25T19:12:15.184Z,72.30
2018-06-25T19:14:42.775Z,72.70
2018-06-25T19:17:10.388Z,73.00
2018-06-25T19:19:38.012Z,73.40
2018-06-25T19:22:05.918Z,73.60
2018-06-25T19:24:33.604Z,73.90
2018-06-25T19:27:01.352Z,74.40
2018-06-25T19:29:28.977Z,74.70
2018-06-25T19:31:56.583Z,74.90
2018-06-25T19:34:24.225Z,75.10
2018-06-25T19:36:51.915Z,75.60
2018-06-25T19:39:19.556Z,76.00
2018-06-25T19:41:47.186Z,76.20
2018-06-25T19:44:15.094Z,76.40
2018-06-25T19:46:42.732Z,76.70
2018-06-25T19:49:10.376Z,77.10
2018-06-25T19:51:38.093Z,77.50
2018-06-25T19:54:05.924Z,77.70
2018-06-25T19:56:33.878Z,78.00
2018-06-25T19:59:01.569Z,78.40
2018-06-25T20:01:29.181Z,78.50
2018-06-25T20:03:57.079Z,78.70
2018-06-25T20:08:52.450Z,79.60
2018-06-25T20:11:20.141Z,79.70
2018-06-25T20:13:47.893Z,79.80
2018-06-25T20:16:15.682Z,80.00
2018-06-25T20:18:43.525Z,80.10
2018-06-25T20:21:11.353Z,80.20
2018-06-25T20:23:39.107Z,80.40
2018-06-25T20:26:06.931Z,80.70
2018-06-25T20:28:34.671Z,80.80
2018-06-25T20:31:02.353Z,81.10
2018-06-25T20:33:30.291Z,82.10
2018-06-25T20:35:57.896Z,81.50
2018-06-25T20:38:25.563Z,81.70
2018-06-25T20:40:53.229Z,81.80
2018-06-25T20:43:20.937Z,82.00
2018-06-25T20:45:48.673Z,82.30
2018-06-25T20:48:16.425Z,82.60
2018-06-25T20:50:45.000Z,82.60
2018-06-25T20:53:12.672Z,82.80
2018-06-25T20:55:40.540Z,82.90
2018-06-25T20:58:08.405Z,83.20
2018-06-25T21:00:36.162Z,83.40
2018-06-25T21:03:03.934Z,83.90
2018-06-25T21:05:31.782Z,84.00
2018-06-25T21:07:59.495Z,84.20
2018-06-25T21:10:27.506Z,84.40
2018-06-25T21:12:55.448Z,84.60
2018-06-25T21:15:23.303Z,84.90
2018-06-25T21:17:51.036Z,85.00
2018-06-25T21:20:18.900Z,85.20
2018-06-25T21:22:46.650Z,85.60
2018-06-25T21:25:14.550Z,85.90
2018-06-25T21:27:42.347Z,86.20
2018-06-25T21:30:10.408Z,86.60
2018-06-25T21:32:38.110Z,87.00
2018-06-25T21:35:05.724Z,87.30
2018-06-25T21:37:33.393Z,87.40
2018-06-25T21:40:01.060Z,88.00
2018-06-25T21:42:28.722Z,88.40
2018-06-25T21:44:56.370Z,89.10
2018-06-25T21:47:24.014Z,90.00
2018-06-25T21:49:51.796Z,90.10
2018-06-25T21:52:19.404Z,90.30
2018-06-25T21:54:47.066Z,90.60
2018-06-25T21:57:14.711Z,90.90
2018-06-25T21:59:42.326Z,91.20
2018-06-25T22:02:09.970Z,91.40
2018-06-25T22:04:37.554Z,91.60
2018-06-25T22:07:05.210Z,91.80
2018-06-25T22:09:32.802Z,92.10
2018-06-25T22:12:00.372Z,92.30
2018-06-25T22:14:27.940Z,92.30
2018-06-25T22:16:55.533Z,92.50
2018-06-25T22:19:23.142Z,92.80
2018-06-25T22:21:50.707Z,93.00
2018-06-25T22:24:18.326Z,93.10
2018-06-25T22:26:45.866Z,93.20
2018-06-25T22:29:13.434Z,93.40
2018-06-25T22:31:41.495Z,93.60
2018-06-25T22:34:09.124Z,93.70
2018-06-25T22:36:36.764Z,93.80
2018-06-25T22:39:07.323Z,93.80
2018-06-25T22:41:34.895Z,93.90
2018-06-25T22:44:10.102Z,94.00
2018-06-25T22:46:39.292Z,94.20
2018-06-25T22:49:06.976Z,94.40
2018-06-25T22:51:34.578Z,94.50
2018-06-25T22:56:30.260Z,94.80
2018-06-25T22:58:57.995Z,94.90
2018-06-25T23:01:25.682Z,94.90
2018-06-25T23:03:53.290Z,95.00
2018-06-25T23:06:20.894Z,95.00
2018-06-25T23:08:48.432Z,95.10
2018-06-25T23:11:16.086Z,95.20
2018-06-25T23:13:43.674Z,95.30
2018-06-25T23:16:11.322Z,95.40
2018-06-25T23:18:38.910Z,95.40
2018-06-25T23:21:06.698Z,95.50
2018-06-25T23:23:34.334Z,95.90
2018-06-25T23:26:01.935Z,95.60
2018-06-25T23:28:29.582Z,95.70
2018-06-25T23:30:57.163Z,95.80
2018-06-25T23:33:24.706Z,95.90
2018-06-25T23:35:52.312Z,96.00
2018-06-25T23:38:19.909Z,96.00
2018-06-25T23:40:47.449Z,96.00
2018-06-25T23:43:15.035Z,96.00
2018-06-25T23:45:42.606Z,96.10
2018-06-25T23:48:10.306Z,96.10
2018-06-25T23:50:38.063Z,96.10
2018-06-25T23:53:05.660Z,96.10
2018-06-25T23:55:33.242Z,95.90
2018-06-25T23:58:00.903Z,96.10
